createdAt,value
2024-02-12T00:03:28.884Z,7.37
2024-02-12T00:08:34.671Z,7.36
2024-02-12T00:13:40.819Z,7.32
2024-02-12T00:18:47.901Z,7.29
2024-02-12T00:23:54.000Z,7.26
2024-02-12T00:28:59.979Z,7.24
2024-02-12T00:34:05.632Z,7.20
2024-02-12T00:39:11.235Z,7.16
2024-02-12T00:44:17.670Z,7.12
2024-02-12T00:49:24.822Z,7.11
2024-02-12T00:54:31.425Z,7.11
2024-02-12T00:59:40.239Z,7.10
2024-02-12T01:04:45.943Z,7.08
2024-02-12T01:09:51.558Z,7.07
2024-02-12T01:14:57.352Z,7.07
2024-02-12T01:20:03.069Z,7.08
2024-02-12T01:25:09.545Z,7.08
2024-02-12T01:30:16.429Z,7.05
2024-02-12T01:35:23.388Z,7.02
2024-02-12T01:40:29.299Z,7.01
2024-02-12T01:45:35.655Z,7.01
2024-02-12T01:50:41.889Z,7.01
2024-02-12T01:55:48.762Z,6.99
2024-02-12T02:00:55.043Z,6.97
2024-02-12T02:05:59.194Z,6.95
2024-02-12T02:11:06.091Z,6.91
2024-02-12T02:16:12.267Z,6.88
2024-02-12T02:21:19.793Z,6.88
2024-02-12T02:26:26.312Z,6.89
2024-02-12T02:31:34.995Z,6.91
2024-02-12T02:36:40.617Z,6.91
2024-02-12T02:41:47.292Z,6.91
2024-02-12T02:46:52.943Z,6.93
2024-02-12T02:52:00.101Z,6.95
2024-02-12T02:57:07.033Z,6.97
2024-02-12T03:02:14.224Z,6.97
2024-02-12T03:07:20.346Z,6.97
2024-02-12T03:12:28.048Z,6.98
2024-02-12T03:17:33.979Z,6.97
2024-02-12T03:22:42.537Z,6.96
2024-02-12T03:27:48.175Z,6.93
2024-02-12T03:32:54.007Z,6.91
2024-02-12T03:37:59.981Z,6.89
2024-02-12T03:43:06.755Z,6.88
2024-02-12T03:48:32.630Z,6.88
2024-02-12T03:53:58.064Z,6.88
2024-02-12T03:59:35.650Z,6.85
2024-02-12T04:04:41.400Z,6.84
2024-02-12T04:09:47.039Z,6.85
2024-02-12T04:14:54.540Z,6.84
2024-02-12T04:20:01.372Z,6.83
2024-02-12T04:25:08.217Z,6.82
2024-02-12T04:30:16.018Z,6.83
2024-02-12T04:35:21.709Z,6.82
2024-02-12T04:40:27.695Z,6.83
2024-02-12T04:45:33.310Z,6.84
2024-02-12T04:50:38.981Z,6.84
2024-02-12T04:55:44.876Z,6.85
2024-02-12T05:00:50.639Z,6.86
2024-02-12T05:05:56.462Z,6.86
2024-02-12T05:11:02.139Z,6.87
2024-02-12T05:16:10.035Z,6.87
2024-02-12T05:21:35.171Z,6.87
2024-02-12T05:26:41.688Z,6.88
2024-02-12T05:31:47.569Z,6.86
2024-02-12T05:36:54.894Z,6.86
2024-02-12T05:42:00.555Z,6.86
2024-02-12T05:47:07.421Z,6.86
2024-02-12T05:52:13.503Z,6.87
2024-02-12T05:57:20.433Z,6.90
2024-02-12T06:02:26.254Z,6.92
2024-02-12T06:07:35.984Z,6.93
2024-02-12T06:12:44.604Z,6.94
2024-02-12T06:17:50.290Z,6.91
2024-02-12T06:22:56.043Z,6.90
2024-02-12T06:28:01.810Z,6.89
2024-02-12T06:33:09.192Z,6.86
2024-02-12T06:38:16.134Z,6.86
2024-02-12T06:43:21.887Z,6.87
2024-02-12T06:48:27.799Z,6.88
2024-02-12T06:53:34.423Z,6.90
2024-02-12T06:58:40.256Z,6.94
2024-02-12T07:03:48.208Z,6.97
2024-02-12T07:08:57.980Z,7.01
2024-02-12T07:14:05.081Z,7.06
2024-02-12T07:19:10.991Z,7.08
2024-02-12T07:24:16.845Z,7.10
2024-02-12T07:29:23.342Z,7.14
2024-02-12T07:34:30.153Z,7.18
2024-02-12T07:39:36.317Z,7.22
2024-02-12T07:44:43.516Z,7.27
2024-02-12T07:49:49.258Z,7.33
2024-02-12T07:54:55.006Z,7.38
2024-02-12T08:00:05.295Z,7.42
2024-02-12T08:05:11.382Z,7.46
2024-02-12T08:10:17.159Z,7.53
2024-02-12T08:15:21.817Z,7.59
2024-02-12T08:20:28.124Z,7.67
2024-02-12T08:25:34.183Z,7.77
2024-02-12T08:30:39.812Z,7.91
2024-02-12T08:35:45.592Z,8.07
2024-02-12T08:40:51.880Z,8.17
2024-02-12T08:45:56.021Z,8.28
2024-02-12T08:51:01.563Z,8.36
2024-02-12T08:56:08.322Z,8.43
2024-02-12T09:01:15.273Z,8.48
2024-02-12T09:06:20.962Z,8.53
2024-02-12T09:11:28.539Z,8.58
2024-02-12T09:16:34.196Z,8.63
2024-02-12T09:21:43.680Z,8.66
2024-02-12T09:26:49.612Z,8.67
2024-02-12T09:31:55.235Z,8.68
2024-02-12T09:37:00.844Z,8.72
2024-02-12T09:42:08.904Z,8.76
2024-02-12T09:47:18.401Z,8.82
2024-02-12T09:52:27.751Z,8.84
2024-02-12T09:57:34.209Z,8.86
2024-02-12T10:02:41.771Z,8.89
2024-02-12T10:07:47.713Z,8.92
2024-02-12T10:12:56.416Z,8.97
2024-02-12T10:18:02.573Z,9.03
2024-02-12T10:23:10.345Z,9.10
2024-02-12T10:28:16.389Z,9.19
2024-02-12T10:33:22.627Z,9.29
2024-02-12T10:38:31.522Z,9.38
2024-02-12T10:43:41.534Z,9.50
2024-02-12T10:48:50.083Z,9.61
2024-02-12T10:53:58.452Z,9.65
2024-02-12T10:59:06.429Z,9.66
2024-02-12T11:04:17.364Z,9.69
2024-02-12T11:09:34.043Z,9.73
2024-02-12T11:14:47.512Z,9.78
2024-02-12T11:19:53.465Z,9.81
2024-02-12T11:25:10.171Z,9.81
2024-02-12T11:30:20.412Z,9.80
2024-02-12T11:35:26.308Z,9.81
2024-02-12T11:40:31.050Z,9.84
2024-02-12T11:45:38.391Z,9.88
2024-02-12T11:50:44.197Z,9.92
2024-02-12T11:55:48.738Z,9.95
2024-02-12T12:00:55.115Z,9.92
2024-02-12T12:06:01.042Z,9.87
2024-02-12T12:11:12.500Z,9.83
2024-02-12T12:16:19.605Z,9.79
2024-02-12T12:21:25.319Z,9.75
2024-02-12T12:26:31.066Z,9.72
2024-02-12T12:31:37.778Z,9.71
2024-02-12T12:36:43.526Z,9.72
2024-02-12T12:41:51.267Z,9.77
2024-02-12T12:46:57.646Z,9.82
2024-02-12T12:52:03.730Z,9.84
2024-02-12T12:57:10.511Z,9.85
2024-02-12T13:02:16.134Z,9.84
2024-02-12T13:07:22.062Z,9.81
2024-02-12T13:12:31.912Z,9.79
2024-02-12T13:17:37.806Z,9.78
2024-02-12T13:22:55.013Z,9.77
2024-02-12T13:28:02.532Z,9.76
2024-02-12T13:33:11.013Z,9.77
2024-02-12T13:38:20.176Z,9.77
2024-02-12T13:43:26.605Z,9.77
2024-02-12T13:48:33.335Z,9.76
2024-02-12T13:53:40.007Z,9.76
2024-02-12T13:58:45.876Z,9.76
2024-02-12T14:03:52.003Z,9.76
2024-02-12T14:08:58.753Z,9.73
2024-02-12T14:14:04.660Z,9.70
2024-02-12T14:19:12.473Z,9.70
2024-02-12T14:24:19.731Z,9.70
2024-02-12T14:29:26.473Z,9.72
2024-02-12T14:34:32.355Z,9.74
2024-02-12T14:39:39.758Z,9.76
2024-02-12T14:44:46.437Z,9.78
2024-02-12T14:49:52.574Z,9.79
2024-02-12T14:54:56.707Z,9.84
2024-02-12T15:00:04.452Z,9.89
2024-02-12T15:05:15.051Z,9.94
2024-02-12T15:10:22.901Z,9.95
2024-02-12T15:15:33.916Z,9.93
2024-02-12T15:20:39.772Z,9.90
2024-02-12T15:25:46.744Z,9.86
2024-02-12T15:30:53.506Z,9.82
2024-02-12T15:36:01.155Z,9.77
2024-02-12T15:41:07.330Z,9.72
2024-02-12T15:46:13.379Z,9.68
2024-02-12T15:51:17.599Z,9.63
2024-02-12T15:56:25.430Z,9.59
2024-02-12T16:01:36.057Z,9.54
2024-02-12T16:06:41.865Z,9.49
2024-02-12T16:11:47.952Z,9.45
2024-02-12T16:16:52.121Z,9.40
2024-02-12T16:21:59.348Z,9.37
2024-02-12T16:27:07.248Z,9.34
2024-02-12T16:32:12.944Z,9.31
2024-02-12T16:37:18.802Z,9.28
2024-02-12T16:42:26.860Z,9.26
2024-02-12T16:47:33.064Z,9.23
2024-02-12T16:52:39.528Z,9.23
2024-02-12T16:57:45.497Z,9.19
2024-02-12T17:02:50.016Z,9.15
2024-02-12T17:08:05.965Z,9.10
2024-02-12T17:13:14.886Z,9.03
2024-02-12T17:18:20.945Z,8.97
2024-02-12T17:23:27.561Z,8.90
2024-02-12T17:28:33.297Z,8.85
2024-02-12T17:33:38.968Z,8.78
2024-02-12T17:38:46.960Z,8.73
2024-02-12T17:43:56.625Z,8.69
2024-02-12T17:49:05.308Z,8.67
2024-02-12T17:54:13.895Z,8.64
2024-02-12T17:59:19.510Z,8.61
2024-02-12T18:04:25.237Z,8.58
2024-02-12T18:09:31.071Z,8.55
2024-02-12T18:14:37.222Z,8.51
2024-02-12T18:19:48.793Z,8.47
2024-02-12T18:24:58.434Z,8.42
2024-02-12T18:30:04.469Z,8.38
2024-02-12T18:35:12.830Z,8.34
2024-02-12T18:40:19.440Z,8.30
2024-02-12T18:45:26.463Z,8.27
2024-02-12T18:50:33.536Z,8.25
2024-02-12T18:55:39.248Z,8.21
2024-02-12T19:00:45.011Z,8.18
2024-02-12T19:05:51.873Z,8.11
2024-02-12T19:10:58.070Z,8.04
2024-02-12T19:16:04.737Z,7.98
2024-02-12T19:21:10.637Z,7.94
2024-02-12T19:26:16.372Z,7.90
2024-02-12T19:31:22.038Z,7.87
2024-02-12T19:36:28.701Z,7.84
2024-02-12T19:41:34.986Z,7.81
2024-02-12T19:46:42.579Z,7.76
2024-02-12T19:51:48.871Z,7.71
2024-02-12T19:56:54.484Z,7.66
2024-02-12T20:02:03.388Z,7.63
2024-02-12T20:07:09.518Z,7.60
2024-02-12T20:12:15.199Z,7.53
2024-02-12T20:17:20.994Z,7.46
2024-02-12T20:22:26.825Z,7.40
2024-02-12T20:27:32.439Z,7.35
2024-02-12T20:32:38.312Z,7.30
2024-02-12T20:37:44.152Z,7.24
2024-02-12T20:42:49.926Z,7.19
2024-02-12T20:47:55.809Z,7.14
2024-02-12T20:53:00.162Z,7.09
2024-02-12T20:58:08.720Z,7.04
2024-02-12T21:03:14.407Z,6.99
2024-02-12T21:08:26.573Z,6.97
2024-02-12T21:13:32.889Z,6.94
2024-02-12T21:18:39.325Z,6.91
2024-02-12T21:23:45.105Z,6.89
2024-02-12T21:28:52.839Z,6.86
2024-02-12T21:33:59.627Z,6.84
2024-02-12T21:39:10.503Z,6.81
2024-02-12T21:44:16.608Z,6.78
2024-02-12T21:49:23.895Z,6.77
2024-02-12T21:54:29.511Z,6.81
2024-02-12T21:59:35.681Z,6.84
2024-02-12T22:04:41.851Z,6.85
2024-02-12T22:09:47.504Z,6.85
2024-02-12T22:14:55.498Z,6.87
2024-02-12T22:20:01.373Z,6.86
2024-02-12T22:25:08.336Z,6.85
2024-02-12T22:30:16.116Z,6.83
2024-02-12T22:35:21.830Z,6.83
2024-02-12T22:40:28.147Z,6.83
2024-02-12T22:45:32.415Z,6.82
2024-02-12T22:50:41.114Z,6.80
2024-02-12T22:55:48.586Z,6.79
2024-02-12T23:00:56.893Z,6.76
2024-02-12T23:06:09.849Z,6.73
2024-02-12T23:11:20.201Z,6.71
2024-02-12T23:16:25.969Z,6.69
2024-02-12T23:21:33.385Z,6.67
2024-02-12T23:26:46.652Z,6.66
2024-02-12T23:31:54.329Z,6.64
2024-02-12T23:37:02.401Z,6.62
2024-02-12T23:42:17.600Z,6.59
2024-02-12T23:47:26.265Z,6.57
2024-02-12T23:52:34.740Z,6.55
2024-02-12T23:57:41.247Z,6.51
